Time;durP1;ratioP1;P1;durP2;ratioP2;P2;SDS_P1;SDS_P2;PMS_P1;PMS_P2;Temp;Humidity;BMP_temperature;BMP_pressure;BME280_temperature;BME280_humidity;BME280_pressure;Samples;Min_cycle;Max_cycle;Signal;HPM_P1;HPM_P2
2022/10/19 00:00:30;;;;;;;11.17;8.60;;;12.50;99.90;;;;;;5036800;28;20177;-77
2022/10/19 00:02:56;;;;;;;12.87;8.83;;;12.50;99.90;;;;;;5041530;28;20196;-77
2022/10/19 00:05:21;;;;;;;13.40;9.13;;;12.50;99.90;;;;;;5049661;28;20173;-77
2022/10/19 00:07:47;;;;;;;10.30;7.80;;;12.40;99.90;;;;;;5040199;28;20211;-77
2022/10/19 00:10:13;;;;;;;12.23;8.20;;;12.40;99.90;;;;;;5057919;28;20173;-77
2022/10/19 00:12:39;;;;;;;11.40;8.57;;;12.40;99.90;;;;;;5057558;28;20196;-78
2022/10/19 00:15:05;;;;;;;13.30;8.50;;;12.40;99.90;;;;;;5057913;28;20173;-77
2022/10/19 00:17:32;;;;;;;10.02;7.15;;;12.30;99.90;;;;;;5056596;28;20788;-78
2022/10/19 00:19:58;;;;;;;11.95;8.35;;;12.30;99.90;;;;;;5057836;28;20190;-77
2022/10/19 00:22:24;;;;;;;11.53;7.90;;;12.30;99.90;;;;;;5057447;28;20199;-77
2022/10/19 00:24:49;;;;;;;11.07;7.93;;;12.30;99.90;;;;;;5057729;28;20172;-78
2022/10/19 00:27:15;;;;;;;13.40;7.97;;;12.20;99.90;;;;;;5057660;28;20165;-77
2022/10/19 00:29:41;;;;;;;10.37;7.03;;;12.20;99.90;;;;;;5056527;28;20173;-77
2022/10/19 00:32:07;;;;;;;10.93;7.70;;;12.20;99.90;;;;;;5056084;28;20980;-77
2022/10/19 00:34:32;;;;;;;10.90;7.63;;;12.10;99.90;;;;;;5056410;28;20173;-78
2022/10/19 00:36:59;;;;;;;10.73;8.07;;;12.10;99.90;;;;;;5057498;28;20565;-77
2022/10/19 00:39:25;;;;;;;8.60;6.35;;;12.10;99.90;;;;;;5057763;28;20161;-78
2022/10/19 00:41:50;;;;;;;13.30;7.10;;;12.00;99.90;;;;;;5057506;28;20161;-78
2022/10/19 00:44:16;;;;;;;9.23;7.57;;;12.00;99.90;;;;;;5057523;28;20172;-78
2022/10/19 00:46:44;;;;;;;13.20;7.57;;;12.00;99.90;;;;;;5057616;28;20165;-78
2022/10/19 00:49:10;;;;;;;9.25;7.55;;;12.00;99.90;;;;;;5057735;28;20176;-78
2022/10/19 00:51:40;;;;;;;11.20;7.80;;;11.90;99.90;;;;;;5054427;28;20169;-78
2022/10/19 00:54:08;;;;;;;11.48;6.88;;;11.90;99.90;;;;;;5053882;28;20184;-78
2022/10/19 00:56:34;;;;;;;9.88;6.70;;;11.90;99.90;;;;;;5054107;28;20157;-78
2022/10/19 00:59:04;;;;;;;8.40;6.50;;;11.90;99.90;;;;;;5053730;28;20165;-78
2022/10/19 01:01:31;;;;;;;9.90;7.45;;;11.90;99.90;;;;;;5054173;28;20165;-78
2022/10/19 01:03:57;;;;;;;9.15;6.10;;;11.90;99.90;;;;;;5053691;28;20189;-78
2022/10/19 01:06:25;;;;;;;9.40;6.43;;;11.80;99.90;;;;;;5070086;28;20165;-78
2022/10/19 01:08:50;;;;;;;8.05;7.25;;;11.80;99.90;;;;;;5054719;28;20184;-78
2022/10/19 01:11:31;;;;;;;6.27;5.27;;;11.80;99.90;;;;;;5052425;28;20637;-78
2022/10/19 01:14:03;;;;;;;9.85;6.50;;;11.80;99.90;;;;;;5052187;28;20193;-77
2022/10/19 01:16:51;;;;;;;8.15;5.70;;;11.80;99.90;;;;;;5053851;28;20173;-77
2022/10/19 01:19:55;;;;;;;9.60;5.90;;;11.70;99.90;;;;;;5053867;28;20229;-78
2022/10/19 01:22:32;;;;;;;6.47;5.82;;;11.70;99.90;;;;;;5053684;28;20199;-78
2022/10/19 01:25:13;;;;;;;6.95;5.90;;;11.70;99.90;;;;;;5053828;28;20227;-78
2022/10/19 01:28:07;;;;;;;11.30;5.80;;;11.70;99.90;;;;;;5052410;28;20179;-77
2022/10/19 01:30:57;;;;;;;11.68;6.45;;;11.70;99.90;;;;;;5052475;28;20184;-77
2022/10/19 01:33:31;;;;;;;10.80;6.47;;;11.70;99.90;;;;;;5052026;28;20228;-77
2022/10/19 01:36:26;;;;;;;8.02;5.50;;;11.70;99.90;;;;;;5053576;28;20196;-78
2022/10/19 01:39:22;;;;;;;8.25;6.20;;;11.70;99.90;;;;;;5053450;28;20247;-78
2022/10/19 01:42:15;;;;;;;8.23;6.18;;;11.60;99.90;;;;;;5052780;28;20200;-78
2022/10/19 01:44:52;;;;;;;8.05;5.45;;;11.60;99.90;;;;;;5053417;28;20161;-77
2022/10/19 01:47:30;;;;;;;8.95;5.68;;;11.60;99.90;;;;;;5053532;28;20172;-77
2022/10/19 01:50:02;;;;;;;7.78;6.05;;;11.60;99.90;;;;;;5053377;28;20173;-77
2022/10/19 01:52:28;;;;;;;9.93;6.65;;;11.60;99.90;;;;;;5052828;28;20227;-77
2022/10/19 01:54:57;;;;;;;8.73;6.25;;;11.50;99.90;;;;;;5033390;28;20193;-77
2022/10/19 01:57:27;;;;;;;9.85;6.65;;;11.50;99.90;;;;;;5033128;28;20197;-77
2022/10/19 01:59:54;;;;;;;8.10;6.25;;;11.50;99.90;;;;;;5033139;28;20174;-76
2022/10/19 02:02:21;;;;;;;7.70;6.70;;;11.50;99.90;;;;;;5030641;28;20228;-77
2022/10/19 02:04:48;;;;;;;8.85;5.57;;;11.50;99.90;;;;;;5032755;28;20168;-77
2022/10/19 02:07:15;;;;;;;8.00;6.03;;;11.40;99.90;;;;;;5031779;28;20809;-77
2022/10/19 02:09:40;;;;;;;7.45;6.68;;;11.50;99.90;;;;;;5033165;28;20197;-78
2022/10/19 02:12:09;;;;;;;9.77;5.97;;;11.40;99.90;;;;;;5032616;28;20236;-78
2022/10/19 02:14:39;;;;;;;7.18;5.25;;;11.40;99.90;;;;;;5033052;28;20189;-78
2022/10/19 02:17:10;;;;;;;10.98;7.43;;;11.40;99.90;;;;;;5032756;28;20186;-78
2022/10/19 02:19:36;;;;;;;8.63;6.22;;;11.30;99.90;;;;;;5032920;28;20623;-78
2022/10/19 02:22:02;;;;;;;9.90;6.75;;;11.30;99.90;;;;;;5032228;28;20577;-78
2022/10/19 02:24:28;;;;;;;6.07;5.47;;;11.30;99.90;;;;;;5033013;28;20169;-78
2022/10/19 02:26:55;;;;;;;6.83;5.13;;;11.30;99.90;;;;;;5032643;28;20626;-78
2022/10/19 02:29:21;;;;;;;7.72;5.43;;;11.30;99.90;;;;;;5032657;28;20252;-78
2022/10/19 02:31:47;;;;;;;7.88;5.20;;;11.20;99.90;;;;;;5030957;28;20234;-78
2022/10/19 02:34:13;;;;;;;8.18;5.95;;;11.20;99.90;;;;;;5032547;28;20480;-77
2022/10/19 02:36:39;;;;;;;12.47;7.50;;;11.20;99.90;;;;;;5032448;28;20173;-78
2022/10/19 02:39:06;;;;;;;8.63;6.53;;;11.20;99.90;;;;;;5031983;28;20984;-76
2022/10/19 02:41:40;;;;;;;9.75;5.95;;;11.10;99.90;;;;;;5052553;28;20186;-80
2022/10/19 02:44:13;;;;;;;9.82;5.85;;;11.10;99.90;;;;;;5050651;28;20188;-78
2022/10/19 02:47:02;;;;;;;9.15;6.65;;;11.10;99.90;;;;;;5050954;28;20161;-78
2022/10/19 02:49:29;;;;;;;8.00;6.13;;;11.10;99.90;;;;;;5052116;28;20169;-78
2022/10/19 02:52:04;;;;;;;11.35;7.55;;;11.10;99.90;;;;;;5051951;28;20693;-78
2022/10/19 02:54:29;;;;;;;12.57;8.43;;;11.10;99.90;;;;;;5050870;28;20651;-78
2022/10/19 02:56:55;;;;;;;13.27;8.77;;;11.10;99.90;;;;;;5052086;28;20196;-78
2022/10/19 02:59:22;;;;;;;10.67;7.93;;;11.10;99.90;;;;;;5052047;28;20161;-78
2022/10/19 03:01:47;;;;;;;14.90;9.45;;;11.00;99.90;;;;;;5051878;28;20241;-78
2022/10/19 03:04:13;;;;;;;15.33;9.93;;;11.00;99.90;;;;;;5051789;28;20196;-78
2022/10/19 03:06:39;;;;;;;16.50;8.80;;;11.00;99.90;;;;;;5052124;28;20295;-78
2022/10/19 03:09:05;;;;;;;11.03;8.20;;;11.00;99.90;;;;;;5050617;28;20176;-78
2022/10/19 03:11:31;;;;;;;11.70;8.30;;;11.10;99.90;;;;;;5051830;28;20238;-78
2022/10/19 03:13:56;;;;;;;11.17;8.07;;;11.10;99.90;;;;;;5050020;28;20648;-78
2022/10/19 03:16:22;;;;;;;11.60;7.07;;;11.00;99.90;;;;;;5051761;28;20164;-78
2022/10/19 03:18:49;;;;;;;11.80;7.80;;;11.00;99.90;;;;;;5050514;28;21071;-78
2022/10/19 03:21:14;;;;;;;10.68;6.90;;;11.10;99.90;;;;;;5051475;28;20242;-78
2022/10/19 03:23:40;;;;;;;7.40;6.10;;;11.10;99.90;;;;;;5051335;28;20245;-78
2022/10/19 03:26:08;;;;;;;10.37;7.93;;;11.10;99.90;;;;;;5050386;28;20568;-78
2022/10/19 03:28:34;;;;;;;8.02;6.45;;;11.10;99.90;;;;;;5051499;28;20588;-78
2022/10/19 03:30:59;;;;;;;10.65;6.60;;;11.10;99.90;;;;;;5051454;28;20165;-78
2022/10/19 03:33:25;;;;;;;7.10;5.93;;;11.00;99.90;;;;;;5051069;28;20193;-78
2022/10/19 03:36:12;;;;;;;9.03;6.20;;;11.00;99.90;;;;;;5051467;28;20173;-78
2022/10/19 03:38:38;;;;;;;6.10;5.50;;;11.00;99.90;;;;;;5050270;28;21030;-78
2022/10/19 03:41:07;;;;;;;8.40;6.97;;;11.00;99.90;;;;;;5051295;28;20153;-78
2022/10/19 03:43:33;;;;;;;8.73;6.30;;;10.90;99.90;;;;;;5049851;28;20240;-78
2022/10/19 03:45:59;;;;;;;7.05;5.95;;;10.90;99.90;;;;;;5051421;28;20536;-78
2022/10/19 03:48:25;;;;;;;9.47;5.80;;;10.90;99.90;;;;;;5050176;28;20177;-77
2022/10/19 03:51:04;;;;;;;6.63;5.20;;;10.80;99.90;;;;;;5033441;28;20603;-79
2022/10/19 03:53:30;;;;;;;9.00;5.65;;;10.80;99.90;;;;;;5049628;28;20611;-78
2022/10/19 03:56:05;;;;;;;8.30;5.40;;;10.70;99.90;;;;;;5050189;28;20308;-78
2022/10/19 03:58:32;;;;;;;6.07;5.55;;;10.70;99.90;;;;;;5050025;28;20282;-78
2022/10/19 04:00:58;;;;;;;11.77;6.28;;;10.70;99.90;;;;;;5051313;28;20161;-78
2022/10/19 04:03:24;;;;;;;12.83;5.87;;;10.70;99.90;;;;;;5050608;28;20196;-78
2022/10/19 04:05:49;;;;;;;6.30;4.97;;;10.60;99.90;;;;;;5049916;28;20563;-78
2022/10/19 04:08:15;;;;;;;6.83;5.93;;;10.60;99.90;;;;;;5050932;28;21188;-77
2022/10/19 04:10:41;;;;;;;7.67;6.10;;;10.60;99.90;;;;;;5051181;28;20615;-77
2022/10/19 04:13:07;;;;;;;8.40;5.93;;;10.60;99.90;;;;;;5050782;28;20270;-77
2022/10/19 04:15:33;;;;;;;8.70;7.00;;;10.60;99.90;;;;;;5049952;28;20188;-78
2022/10/19 04:17:58;;;;;;;9.47;5.87;;;10.60;99.90;;;;;;5049676;28;20621;-78
2022/10/19 04:20:24;;;;;;;10.03;6.03;;;10.60;99.90;;;;;;5038859;28;20248;-78
2022/10/19 04:22:52;;;;;;;9.77;6.20;;;10.60;99.90;;;;;;5050649;28;20185;-78
2022/10/19 04:25:18;;;;;;;9.85;6.30;;;10.60;99.90;;;;;;5049866;28;20173;-78
2022/10/19 04:27:44;;;;;;;7.90;7.10;;;10.60;99.90;;;;;;5054267;28;20633;-78
2022/10/19 04:30:10;;;;;;;7.05;6.35;;;10.50;99.90;;;;;;5054777;28;20563;-78
2022/10/19 04:32:36;;;;;;;9.38;6.38;;;10.60;99.90;;;;;;5052882;28;20702;-78
2022/10/19 04:35:02;;;;;;;6.73;5.50;;;10.60;99.90;;;;;;5055017;28;20169;-78
2022/10/19 04:37:27;;;;;;;9.32;6.10;;;10.60;99.90;;;;;;5054675;28;20205;-77
2022/10/19 04:39:53;;;;;;;7.93;6.17;;;10.60;99.90;;;;;;5054672;28;20161;-77
2022/10/19 04:42:19;;;;;;;8.13;6.50;;;10.60;99.90;;;;;;5053826;28;20184;-77
2022/10/19 04:44:45;;;;;;;10.83;6.60;;;10.60;99.90;;;;;;5054544;28;20188;-76
2022/10/19 04:47:10;;;;;;;10.50;7.67;;;10.60;99.90;;;;;;5054481;28;20672;-77
2022/10/19 04:49:36;;;;;;;12.03;7.20;;;10.70;99.90;;;;;;5053171;28;20582;-76
2022/10/19 04:52:02;;;;;;;9.93;6.87;;;10.70;99.90;;;;;;5053894;28;20184;-76
2022/10/19 04:54:27;;;;;;;9.10;6.80;;;10.70;99.90;;;;;;5054332;28;20649;-76
2022/10/19 04:56:53;;;;;;;10.10;7.40;;;10.70;99.90;;;;;;5054215;28;20173;-77
2022/10/19 04:59:19;;;;;;;11.33;6.70;;;10.80;99.90;;;;;;5053139;28;20161;-78
2022/10/19 05:01:45;;;;;;;10.37;7.43;;;10.80;99.90;;;;;;5054201;28;20161;-78
2022/10/19 05:04:10;;;;;;;14.70;7.37;;;10.80;99.90;;;;;;5052795;28;20645;-77
2022/10/19 05:06:36;;;;;;;10.30;7.10;;;10.80;99.90;;;;;;5036259;28;20176;-75
2022/10/19 05:09:05;;;;;;;10.23;7.97;;;10.80;99.90;;;;;;5054288;28;20169;-76
2022/10/19 05:11:31;;;;;;;10.68;7.13;;;10.80;99.90;;;;;;5052714;28;20239;-75
2022/10/19 05:13:56;;;;;;;10.17;6.50;;;10.80;99.90;;;;;;5053851;28;20589;-76
2022/10/19 05:16:23;;;;;;;7.13;6.40;;;10.80;99.90;;;;;;5052780;28;20180;-76
2022/10/19 05:18:51;;;;;;;7.60;5.88;;;10.80;99.90;;;;;;5036015;28;20201;-76
2022/10/19 05:21:17;;;;;;;8.60;7.35;;;10.80;99.90;;;;;;5053915;28;20245;-77
2022/10/19 05:23:44;;;;;;;8.25;6.38;;;10.80;99.90;;;;;;5052253;28;20192;-76
2022/10/19 05:26:18;;;;;;;7.32;6.60;;;10.80;99.90;;;;;;5054150;28;20165;-77
2022/10/19 05:28:48;;;;;;;7.75;6.70;;;10.80;99.90;;;;;;5052356;28;20215;-77
2022/10/19 05:31:19;;;;;;;8.45;5.95;;;10.80;99.90;;;;;;5053595;28;20204;-76
2022/10/19 05:33:45;;;;;;;7.15;6.40;;;10.80;99.90;;;;;;5053263;28;20192;-76
2022/10/19 05:36:26;;;;;;;7.43;5.78;;;10.80;99.90;;;;;;5053703;28;20176;-76
2022/10/19 05:38:54;;;;;;;6.70;5.97;;;10.80;99.90;;;;;;5053208;28;20677;-75
2022/10/19 05:41:21;;;;;;;8.05;6.63;;;10.70;99.90;;;;;;5041428;28;20177;-77
2022/10/19 05:43:52;;;;;;;7.70;5.50;;;10.80;99.90;;;;;;5048565;28;20776;-76
2022/10/19 05:46:18;;;;;;;7.38;6.15;;;10.80;99.90;;;;;;5033537;28;20166;-76
2022/10/19 05:48:45;;;;;;;7.37;5.67;;;10.80;99.90;;;;;;5032335;28;20188;-77
2022/10/19 05:51:13;;;;;;;11.60;7.25;;;10.80;99.90;;;;;;5032194;28;20586;-76
2022/10/19 05:53:39;;;;;;;6.22;5.60;;;10.70;99.90;;;;;;5041778;28;20696;-75
2022/10/19 05:56:07;;;;;;;8.45;6.45;;;10.80;99.90;;;;;;5040037;28;20185;-76
2022/10/19 05:58:33;;;;;;;6.45;5.72;;;10.70;99.90;;;;;;5032978;28;20201;-77
2022/10/19 06:01:00;;;;;;;7.07;6.38;;;10.70;99.90;;;;;;5031806;28;20205;-77
2022/10/19 06:03:27;;;;;;;6.35;5.40;;;10.70;99.90;;;;;;5013533;28;20196;-76
2022/10/19 06:05:54;;;;;;;9.57;7.70;;;10.60;99.90;;;;;;5031290;28;20702;-76
2022/10/19 06:08:21;;;;;;;7.50;6.15;;;10.50;99.90;;;;;;5031251;28;20166;-76
2022/10/19 06:10:48;;;;;;;8.85;6.05;;;10.50;99.90;;;;;;5032826;28;20165;-76
2022/10/19 06:13:15;;;;;;;8.95;6.10;;;10.50;99.90;;;;;;5032440;28;20190;-75
2022/10/19 06:15:40;;;;;;;7.15;6.07;;;10.50;99.90;;;;;;5032888;28;20173;-76
2022/10/19 06:18:07;;;;;;;7.37;5.70;;;10.50;99.90;;;;;;5032675;28;20638;-75
2022/10/19 06:20:35;;;;;;;11.90;7.28;;;10.60;99.90;;;;;;5032613;28;20180;-76
2022/10/19 06:23:01;;;;;;;6.65;5.85;;;10.50;99.90;;;;;;5032236;28;20189;-76
2022/10/19 06:25:28;;;;;;;10.50;6.15;;;10.50;99.90;;;;;;5031492;28;20170;-76
2022/10/19 06:27:54;;;;;;;8.35;6.63;;;10.50;99.90;;;;;;5032500;28;20169;-76
2022/10/19 06:30:19;;;;;;;8.63;6.53;;;10.50;99.90;;;;;;5031361;28;20169;-76
2022/10/19 06:32:45;;;;;;;8.83;7.30;;;10.50;99.90;;;;;;5031968;28;20212;-76
2022/10/19 06:35:11;;;;;;;7.23;6.13;;;10.50;99.90;;;;;;5014835;28;20220;-76
2022/10/19 06:37:37;;;;;;;8.60;7.47;;;10.60;99.90;;;;;;5032282;28;20662;-76
2022/10/19 06:40:03;;;;;;;9.07;7.43;;;10.60;99.90;;;;;;5032516;28;20645;-76
2022/10/19 06:42:28;;;;;;;9.35;7.30;;;10.70;99.90;;;;;;5030803;28;20261;-75
2022/10/19 06:44:54;;;;;;;9.53;8.50;;;10.80;99.90;;;;;;5032285;28;20173;-76
2022/10/19 06:47:20;;;;;;;12.63;8.43;;;10.80;99.90;;;;;;5032189;28;20177;-75
2022/10/19 06:49:46;;;;;;;10.70;8.63;;;10.90;99.90;;;;;;5030484;28;20173;-76
2022/10/19 06:52:12;;;;;;;9.10;7.80;;;10.90;99.90;;;;;;5031820;28;20604;-76
2022/10/19 06:54:37;;;;;;;12.30;7.70;;;11.00;99.90;;;;;;5030898;28;20575;-75
2022/10/19 06:57:03;;;;;;;9.73;7.67;;;11.10;99.90;;;;;;5031969;28;20205;-75
2022/10/19 06:59:29;;;;;;;11.50;8.80;;;11.10;99.90;;;;;;5030803;28;20190;-76
2022/10/19 07:01:55;;;;;;;9.38;7.43;;;11.20;99.90;;;;;;5031837;28;20173;-76
2022/10/19 07:04:20;;;;;;;11.67;7.90;;;11.20;99.90;;;;;;5030269;28;20174;-76
2022/10/19 07:06:46;;;;;;;10.90;8.10;;;11.20;99.90;;;;;;5032008;28;20630;-76
2022/10/19 07:09:12;;;;;;;8.27;7.00;;;11.20;99.90;;;;;;5030591;28;20185;-76
2022/10/19 07:11:38;;;;;;;12.57;9.33;;;11.10;99.90;;;;;;5030671;28;20176;-75
2022/10/19 07:14:03;;;;;;;9.90;8.90;;;11.10;99.90;;;;;;5030294;28;20691;-76
2022/10/19 07:16:29;;;;;;;11.50;7.80;;;11.10;99.90;;;;;;5031865;28;20174;-76
2022/10/19 07:18:55;;;;;;;11.83;9.80;;;11.10;99.90;;;;;;5030582;28;20224;-76
2022/10/19 07:21:22;;;;;;;10.80;8.90;;;11.10;99.90;;;;;;5031408;28;20184;-76
2022/10/19 07:23:48;;;;;;;13.45;7.78;;;11.10;99.90;;;;;;5031426;28;20220;-77
2022/10/19 07:26:26;;;;;;;11.10;6.60;;;11.10;99.90;;;;;;5031779;28;20170;-75
2022/10/19 07:28:55;;;;;;;9.68;7.53;;;11.20;99.90;;;;;;5030346;28;20564;-76
2022/10/19 07:31:23;;;;;;;11.52;7.57;;;11.30;99.90;;;;;;5031458;28;20193;-76
2022/10/19 07:33:57;;;;;;;10.40;7.40;;;11.30;99.90;;;;;;5031503;28;20563;-76
2022/10/19 07:36:24;;;;;;;9.10;6.80;;;11.30;99.90;;;;;;5031723;28;20262;-76
2022/10/19 07:38:50;;;;;;;10.25;7.35;;;11.40;99.90;;;;;;5031506;28;20288;-77
2022/10/19 07:41:18;;;;;;;9.10;6.65;;;11.50;99.90;;;;;;5030344;28;20171;-77
2022/10/19 07:43:45;;;;;;;10.20;6.72;;;11.60;99.90;;;;;;5030139;28;20198;-77
2022/10/19 07:46:13;;;;;;;10.52;6.30;;;11.70;99.90;;;;;;5030222;28;20180;-76
2022/10/19 07:48:40;;;;;;;14.55;8.40;;;11.80;99.90;;;;;;5013903;28;20244;-76
2022/10/19 07:51:07;;;;;;;11.95;6.05;;;11.90;99.90;;;;;;5031458;28;20170;-76
2022/10/19 07:53:34;;;;;;;5.25;4.57;;;12.00;99.90;;;;;;5031135;28;20193;-76
2022/10/19 07:56:12;;;;;;;7.25;5.00;;;12.10;99.90;;;;;;5031571;28;20166;-76
2022/10/19 07:58:39;;;;;;;7.63;5.07;;;12.20;99.90;;;;;;5030262;28;20211;-77
2022/10/19 08:01:08;;;;;;;6.22;4.97;;;12.30;99.90;;;;;;5033868;28;20162;-76
2022/10/19 08:03:34;;;;;;;4.85;4.22;;;12.40;99.90;;;;;;5035128;28;20228;-77
2022/10/19 08:06:05;;;;;;;6.93;3.95;;;12.40;99.90;;;;;;5035246;28;20170;-76
2022/10/19 08:08:31;;;;;;;7.22;3.88;;;12.50;99.90;;;;;;5035331;28;20217;-77
2022/10/19 08:11:04;;;;;;;5.40;4.30;;;12.60;99.90;;;;;;5033947;28;20181;-77
2022/10/19 08:13:30;;;;;;;11.18;4.35;;;12.80;99.90;;;;;;5034863;28;20564;-76
2022/10/19 08:15:56;;;;;;;7.20;4.37;;;13.30;99.90;;;;;;5035077;28;20219;-76
2022/10/19 08:18:22;;;;;;;6.50;3.70;;;13.90;99.90;;;;;;5033890;28;20225;-76
2022/10/19 08:20:48;;;;;;;7.17;3.70;;;14.70;99.90;;;;;;5034989;28;20201;-76
2022/10/19 08:23:14;;;;;;;3.73;2.60;;;15.50;99.90;;;;;;5034530;28;20599;-77
2022/10/19 08:25:40;;;;;;;4.70;2.63;;;16.50;99.90;;;;;;5033723;28;20572;-76
2022/10/19 08:28:06;;;;;;;5.10;3.27;;;17.40;99.90;;;;;;5034947;28;20923;-77
2022/10/19 08:30:34;;;;;;;5.07;2.50;;;18.20;99.90;;;;;;5034822;28;20252;-78
2022/10/19 08:33:01;;;;;;;7.77;2.40;;;19.00;99.90;;;;;;5034253;28;20204;-78
2022/10/19 08:35:29;;;;;;;4.07;2.97;;;19.70;99.90;;;;;;5033519;28;20576;-77
2022/10/19 08:37:56;;;;;;;3.83;2.07;;;20.40;99.90;;;;;;5034792;28;20623;-77
2022/10/19 08:40:26;;;;;;;4.10;2.10;;;21.10;99.90;;;;;;5033405;28;20569;-77
2022/10/19 08:43:08;;;;;;;3.37;2.10;;;21.70;99.90;;;;;;5033106;28;20604;-77
2022/10/19 08:45:39;;;;;;;4.93;1.80;;;22.10;99.90;;;;;;5033115;28;20573;-77
2022/10/19 08:48:23;;;;;;;2.73;2.13;;;22.40;99.90;;;;;;5035411;28;20965;-77
2022/10/19 08:50:49;;;;;;;2.57;1.60;;;22.80;99.90;;;;;;5034986;28;20564;-77
2022/10/19 08:53:25;;;;;;;3.50;1.60;;;23.00;99.90;;;;;;5034262;28;20699;-77
2022/10/19 08:56:09;;;;;;;3.60;2.10;;;23.40;99.90;;;;;;5033413;28;20575;-77
2022/10/19 08:58:47;;;;;;;3.83;1.70;;;23.70;99.90;;;;;;5016383;28;20643;-77
2022/10/19 09:01:15;;;;;;;4.23;1.97;;;24.10;99.90;;;;;;5033710;28;20600;-77
2022/10/19 09:04:05;;;;;;;3.90;2.03;;;24.70;99.90;;;;;;5032891;28;21184;-77
2022/10/19 09:06:47;;;;;;;2.83;1.80;;;25.30;99.90;;;;;;5034239;28;20560;-77
2022/10/19 09:09:14;;;;;;;3.50;1.67;;;25.90;99.90;;;;;;5033131;28;20590;-78
2022/10/19 09:11:45;;;;;;;3.63;1.80;;;26.60;99.90;;;;;;5015808;28;20580;-77
2022/10/19 09:14:29;;;;;;;2.53;2.07;;;27.20;99.90;;;;;;5033784;28;20596;-76
2022/10/19 09:17:01;;;;;;;3.63;1.30;;;27.40;99.90;;;;;;5032869;28;20579;-77
2022/10/19 09:19:30;;;;;;;3.70;1.90;;;27.50;99.90;;;;;;5034420;28;20556;-77
2022/10/19 09:22:01;;;;;;;2.77;1.47;;;27.70;99.90;;;;;;5032453;28;20942;-77
2022/10/19 09:24:47;;;;;;;4.17;1.77;;;28.10;99.90;;;;;;5056260;22;20990;-74
2022/10/19 09:27:25;;;;;;;2.47;1.37;;;28.40;99.90;;;;;;5016940;28;20601;-73
2022/10/19 09:29:56;;;;;;;3.43;1.87;;;28.60;92.80;;;;;;4996620;28;20554;-76
2022/10/19 09:32:33;;;;;;;5.60;1.70;;;28.20;99.90;;;;;;4976698;28;20597;-75
2022/10/19 09:35:13;;;;;;;5.63;2.13;;;28.10;98.50;;;;;;4994132;28;20609;-76
2022/10/19 09:37:43;;;;;;;4.27;2.67;;;28.00;99.60;;;;;;4994274;28;20622;-76
2022/10/19 09:40:28;;;;;;;4.53;2.03;;;28.10;94.80;;;;;;4994381;28;20562;-76
2022/10/19 09:42:58;;;;;;;6.23;2.23;;;27.90;93.80;;;;;;4993834;28;20601;-76
2022/10/19 09:45:30;;;;;;;4.77;2.67;;;27.60;94.30;;;;;;4976716;28;20613;-76
2022/10/19 09:47:56;;;;;;;4.60;2.20;;;27.40;85.10;;;;;;4976785;28;20590;-76
2022/10/19 09:50:24;;;;;;;3.10;1.80;;;26.80;91.10;;;;;;4976590;28;21179;-76
2022/10/19 09:52:54;;;;;;;4.40;2.33;;;26.50;92.20;;;;;;4976408;28;20578;-76
2022/10/19 09:55:37;;;;;;;3.07;1.67;;;26.10;92.20;;;;;;4993862;28;20725;-76
2022/10/19 09:58:18;;;;;;;2.60;1.50;;;26.10;93.30;;;;;;4993886;28;20628;-76
2022/10/19 10:00:55;;;;;;;6.13;2.47;;;26.40;96.10;;;;;;4994193;28;20907;-76
2022/10/19 10:03:42;;;;;;;5.03;1.73;;;26.60;93.00;;;;;;4976318;28;20577;-76
2022/10/19 10:06:12;;;;;;;4.10;2.20;;;26.50;94.80;;;;;;4962918;28;21215;-76
2022/10/19 10:08:57;;;;;;;6.30;1.90;;;26.40;93.50;;;;;;4993910;28;20574;-76
2022/10/19 10:11:38;;;;;;;2.80;1.60;;;26.40;94.80;;;;;;4993500;28;20679;-76
2022/10/19 10:14:30;;;;;;;3.57;1.90;;;26.30;93.40;;;;;;4993830;28;21180;-76
2022/10/19 10:17:15;;;;;;;3.80;2.00;;;26.20;95.10;;;;;;4993542;28;20574;-75
2022/10/19 10:19:59;;;;;;;2.80;1.50;;;26.20;94.90;;;;;;4993710;28;20581;-76
2022/10/19 10:22:31;;;;;;;3.50;1.47;;;26.20;94.90;;;;;;4975739;28;20575;-75
2022/10/19 10:24:57;;;;;;;2.97;1.60;;;26.10;94.30;;;;;;4992121;28;20206;-76
2022/10/19 10:27:36;;;;;;;2.83;2.47;;;26.20;95.20;;;;;;4993290;28;20621;-75
2022/10/19 10:30:08;;;;;;;4.53;2.37;;;26.10;91.70;;;;;;4993289;28;20577;-76
2022/10/19 10:32:46;;;;;;;2.73;1.80;;;25.80;92.80;;;;;;4975533;28;20593;-76
2022/10/19 10:35:34;;;;;;;3.37;1.70;;;25.50;92.70;;;;;;4993012;28;20611;-76
2022/10/19 10:38:25;;;;;;;3.87;1.60;;;25.50;93.90;;;;;;4975633;28;20688;-76
2022/10/19 10:40:58;;;;;;;3.70;1.90;;;25.60;94.60;;;;;;4993093;28;20567;-76
2022/10/19 10:43:32;;;;;;;6.20;1.90;;;25.90;94.90;;;;;;4993315;28;20984;-76
2022/10/19 10:46:12;;;;;;;5.23;1.97;;;25.70;90.80;;;;;;4992972;28;21275;-76
2022/10/19 10:48:43;;;;;;;5.13;1.70;;;25.80;94.60;;;;;;4993136;28;21112;-76
2022/10/19 10:51:20;;;;;;;3.40;2.07;;;25.60;94.50;;;;;;4992980;28;21039;-76
2022/10/19 10:53:46;;;;;;;2.57;1.40;;;25.40;93.10;;;;;;4992678;28;21064;-76
2022/10/19 10:56:25;;;;;;;4.07;1.40;;;25.20;91.90;;;;;;4992649;28;20612;-76
2022/10/19 10:59:03;;;;;;;2.57;1.57;;;25.00;90.50;;;;;;4992726;28;20620;-76
2022/10/19 11:01:38;;;;;;;5.80;1.73;;;25.00;92.90;;;;;;4991537;28;20575;-76
2022/10/19 11:04:15;;;;;;;3.63;1.73;;;25.10;93.90;;;;;;4992508;28;20954;-76
2022/10/19 11:06:46;;;;;;;3.60;1.77;;;25.10;93.40;;;;;;4975317;28;20970;-76
2022/10/19 11:09:23;;;;;;;3.70;1.87;;;25.10;93.70;;;;;;4992665;28;20579;-76
2022/10/19 11:11:54;;;;;;;7.60;2.20;;;25.20;93.00;;;;;;4992396;28;21083;-76
2022/10/19 11:14:44;;;;;;;3.43;1.80;;;25.20;92.00;;;;;;4974814;28;21207;-76
2022/10/19 11:17:29;;;;;;;4.60;1.70;;;25.10;90.80;;;;;;4990751;28;20981;-76
2022/10/19 11:19:55;;;;;;;8.33;2.23;;;25.20;93.60;;;;;;5002773;28;20594;-76
2022/10/19 11:22:43;;;;;;;4.00;1.70;;;25.40;93.90;;;;;;5011498;28;20587;-76
2022/10/19 11:25:39;;;;;;;3.80;1.90;;;25.50;93.90;;;;;;5027322;28;20234;-76
2022/10/19 11:28:33;;;;;;;3.00;1.90;;;25.50;88.60;;;;;;5020832;28;20594;-76
2022/10/19 11:31:10;;;;;;;3.13;1.57;;;25.50;92.00;;;;;;5013714;28;20928;-76
2022/10/19 11:33:39;;;;;;;2.97;1.63;;;25.30;90.80;;;;;;5011625;28;20568;-76
2022/10/19 11:36:37;;;;;;;6.43;1.67;;;25.20;92.10;;;;;;5011505;28;20722;-76
2022/10/19 11:39:30;;;;;;;3.60;2.07;;;25.10;90.90;;;;;;4994304;28;20657;-75
2022/10/19 11:42:17;;;;;;;3.20;1.37;;;25.00;87.70;;;;;;5011598;28;20561;-76
2022/10/19 11:45:17;;;;;;;3.10;1.50;;;25.00;91.80;;;;;;5011808;28;20589;-75
2022/10/19 11:47:53;;;;;;;3.90;1.50;;;24.90;91.90;;;;;;5011785;28;20573;-76
2022/10/19 11:50:52;;;;;;;3.00;1.17;;;24.90;92.50;;;;;;5011711;28;20718;-75
2022/10/19 11:53:39;;;;;;;3.90;1.70;;;24.80;91.70;;;;;;5011366;28;20569;-75
2022/10/19 11:56:18;;;;;;;4.50;2.10;;;24.50;90.00;;;;;;5011663;28;20593;-75
2022/10/19 11:58:52;;;;;;;4.00;1.50;;;24.20;90.40;;;;;;4994026;28;20617;-75
2022/10/19 12:01:45;;;;;;;3.67;1.60;;;23.90;89.80;;;;;;5011522;28;20984;-75
2022/10/19 12:04:54;;;;;;;5.20;1.87;;;23.40;87.80;;;;;;5011423;28;20716;-75
2022/10/19 12:07:25;;;;;;;6.40;2.23;;;22.90;89.00;;;;;;4997349;28;20589;-75
2022/10/19 12:10:16;;;;;;;5.63;1.93;;;22.50;90.20;;;;;;5011462;28;20565;-75
2022/10/19 12:12:46;;;;;;;4.03;2.03;;;22.20;90.50;;;;;;5011322;28;20763;-75
2022/10/19 12:15:22;;;;;;;5.13;2.43;;;22.00;90.90;;;;;;5011527;28;20597;-75
2022/10/19 12:17:51;;;;;;;4.73;2.27;;;21.70;90.90;;;;;;5011525;28;20613;-75
2022/10/19 12:20:29;;;;;;;4.80;1.50;;;21.40;91.10;;;;;;5011466;28;20565;-75
2022/10/19 12:22:57;;;;;;;3.73;1.57;;;21.20;91.30;;;;;;5011108;28;20620;-75
2022/10/19 12:25:23;;;;;;;3.40;1.53;;;21.00;91.80;;;;;;5011272;28;21025;-75
2022/10/19 12:27:50;;;;;;;4.97;1.40;;;20.90;92.00;;;;;;5011225;28;20620;-75
2022/10/19 12:30:19;;;;;;;4.67;1.90;;;20.70;92.30;;;;;;5011192;28;20993;-75
2022/10/19 12:32:51;;;;;;;4.20;1.50;;;20.60;92.50;;;;;;5011028;28;20942;-75
2022/10/19 12:35:43;;;;;;;6.00;1.67;;;20.40;92.80;;;;;;5011378;28;20640;-75
2022/10/19 12:38:32;;;;;;;7.20;1.70;;;20.20;93.00;;;;;;5010636;28;21083;-75
2022/10/19 12:41:16;;;;;;;5.73;2.13;;;20.00;93.60;;;;;;5011288;28;20561;-75
2022/10/19 12:43:58;;;;;;;4.00;1.73;;;19.90;93.70;;;;;;5011167;28;20573;-75
2022/10/19 12:46:45;;;;;;;3.50;2.07;;;19.70;94.00;;;;;;5011095;28;20696;-75
2022/10/19 12:49:29;;;;;;;5.60;3.13;;;19.50;94.30;;;;;;4997740;28;20569;-75
2022/10/19 12:51:57;;;;;;;2.63;1.50;;;19.50;94.90;;;;;;5014870;28;20601;-75
2022/10/19 12:54:24;;;;;;;3.73;1.33;;;19.50;95.20;;;;;;5014807;28;20565;-75
2022/10/19 12:56:53;;;;;;;3.10;1.60;;;19.50;95.60;;;;;;4997322;28;20577;-75
2022/10/19 12:59:29;;;;;;;2.70;1.40;;;19.40;95.70;;;;;;5014664;28;21032;-75
2022/10/19 13:01:55;;;;;;;3.50;1.60;;;19.30;96.00;;;;;;5014463;28;20579;-75
2022/10/19 13:04:27;;;;;;;4.10;1.73;;;19.30;96.50;;;;;;5014337;28;20558;-75
2022/10/19 13:06:56;;;;;;;4.80;1.90;;;19.30;96.70;;;;;;5014599;28;20611;-75